Winooski, VT (05404)

8:33 AM EDT on July 02, 2015 (GMT -0400)
Lakeside Ave | | Change Station
CLOSE
Current Station
Personal Weather Station
Location: BURLINGTON, VT
Elevation: 112 ft
Nearby Weather Stations

Elev 112 ft 44.46 °N, 73.22 °W | Updated 4 minutes ago

Scattered Clouds
Scattered Clouds
63.5 °F
Feels Like 63.5 °F
N
5.0
Wind Variable Wind from West
Gusts 5.0 mph

Today
High -- | Low -- °F
--% Chance of Precip.
Yesterday
High -- | Low -- °F
Precip. -- in
5:12 AM 8:41 PM
Full, 100% visible
Pressure 29.87 in
Visibility 10.0 miles
Clouds Few 3000 ft
Scattered Clouds 10000 ft
Scattered Clouds 20000 ft
Dew Point 54 °F
Humidity 73%
Rainfall 0.00 in
Snow Depth Not available.
UV 2 out of 12
Pollen 5.80 out of 12
Air Quality Not available.
Flu Activity Not available.
METAR KBTV 021154Z 29008KT 10SM FEW030 SCT100 SCT200 17/09 A2987 RMK AO2 SLP114 70197 T01670094 10183 20150 53009

More Conditions Fewer Conditions

Pressure 29.87 in
Visibility 10.0 miles
Clouds Few 3000 ft
Scattered Clouds 10000 ft
Scattered Clouds 20000 ft
Dew Point 54 °F
Humidity 73%
Rainfall 0.00 in
Snow Depth Not available.
UV 2 out of 12
Pollen 5.80 out of 12
Air Quality Not available.
Flu Activity Not available.
METAR KBTV 021154Z 29008KT 10SM FEW030 SCT100 SCT200 17/09 A2987 RMK AO2 SLP114 70197 T01670094 10183 20150 53009

More Conditions Fewer Conditions

10-Day Weather Forecast

×

Almanac

Astronomy

Jul. 02, 2015 Rise Set
Actual Time
Civil Twilight
Nautical Twilight
Astronomical Twilight
Moon
Length of Visible Light
Length of Day
Tomorrow will be .
, % of the Moon is Illuminated

Today's Extremes

State Highs State Lows

Community

WunderPhotos

Upload Photos

1,834,455 photos uploaded!

WunderBlogs® & News

Nearby

Air Quality

  Air Quality AQ Index Pollutant
Not available.

Snow Depth

Station Depth Elevation

Earthquake Activity

City Distance Mag. Time & Date
Minimum magnitude displayed is 2.5.

Coastal Water Temperatures

Place Temperature

Stations

Nearby Weather Stations

Station Location Temp. Windchill Dew Point Humidity Wind Precip. Elev Updated Type